createdAt,value
2023-02-02T00:01:45.442Z,4.68
2023-02-02T00:04:19.222Z,4.79
2023-02-02T00:06:46.047Z,4.64
2023-02-02T00:09:13.470Z,4.77
2023-02-02T00:11:39.765Z,4.87
2023-02-02T00:14:07.807Z,4.74
2023-02-02T00:16:34.500Z,4.93
2023-02-02T00:19:02.213Z,4.90
2023-02-02T00:21:28.775Z,4.94
2023-02-02T00:23:55.355Z,4.91
2023-02-02T00:26:21.778Z,4.95
2023-02-02T00:28:48.170Z,4.96
2023-02-02T00:31:14.495Z,4.93
2023-02-02T00:33:44.356Z,4.92
2023-02-02T00:36:10.649Z,4.88
2023-02-02T00:38:38.031Z,4.93
2023-02-02T00:41:05.083Z,4.74
2023-02-02T00:43:31.395Z,4.93
2023-02-02T00:45:57.737Z,4.94
2023-02-02T00:48:25.798Z,4.93
2023-02-02T00:50:52.923Z,4.97
2023-02-02T00:53:19.527Z,4.87
2023-02-02T00:55:45.829Z,5.02
2023-02-02T00:58:12.153Z,4.90
2023-02-02T01:00:38.523Z,4.72
2023-02-02T01:03:06.889Z,4.68
2023-02-02T01:05:34.180Z,4.74
2023-02-02T01:08:00.702Z,5.00
2023-02-02T01:10:27.010Z,5.10
2023-02-02T01:12:53.475Z,5.16
2023-02-02T01:15:19.848Z,5.19
2023-02-02T01:17:46.267Z,5.04
2023-02-02T01:20:16.896Z,5.18
2023-02-02T01:22:43.214Z,5.28
2023-02-02T01:25:09.808Z,5.18
2023-02-02T01:27:36.171Z,5.29
2023-02-02T01:30:02.578Z,5.41
2023-02-02T01:32:28.851Z,5.48
2023-02-02T01:34:55.202Z,5.36
2023-02-02T01:37:22.194Z,5.29
2023-02-02T01:39:48.963Z,5.21
2023-02-02T01:42:19.723Z,5.27
2023-02-02T01:45:04.517Z,5.29
2023-02-02T01:47:33.536Z,5.18
2023-02-02T01:50:00.038Z,5.38
2023-02-02T01:52:28.382Z,5.44
2023-02-02T01:55:00.645Z,5.40
2023-02-02T01:57:33.396Z,5.45
2023-02-02T02:00:01.030Z,5.34
2023-02-02T02:02:28.020Z,5.21
2023-02-02T02:04:55.271Z,5.23
2023-02-02T02:07:21.973Z,5.33
2023-02-02T02:09:48.502Z,5.37
2023-02-02T02:12:15.521Z,5.13
2023-02-02T02:15:02.283Z,5.37
2023-02-02T02:17:51.560Z,5.26
2023-02-02T02:20:55.332Z,5.42
2023-02-02T02:23:49.201Z,5.37
2023-02-02T02:26:34.238Z,5.28
2023-02-02T02:29:19.463Z,5.46
2023-02-02T02:32:04.097Z,5.29
2023-02-02T02:34:49.317Z,5.53
2023-02-02T02:37:26.760Z,5.41
2023-02-02T02:39:57.602Z,5.36
2023-02-02T02:42:25.676Z,5.29
2023-02-02T02:44:53.179Z,5.29
2023-02-02T02:47:20.159Z,5.55
2023-02-02T02:49:47.782Z,5.40
2023-02-02T02:52:14.161Z,5.52
2023-02-02T02:54:49.732Z,5.46
2023-02-02T02:57:18.817Z,5.50
2023-02-02T02:59:57.018Z,5.58
2023-02-02T03:02:41.903Z,5.55
2023-02-02T03:05:19.209Z,5.62
2023-02-02T03:07:50.717Z,5.63
2023-02-02T03:10:18.984Z,5.67
2023-02-02T03:12:49.938Z,5.68
2023-02-02T03:15:16.869Z,5.59
2023-02-02T03:17:43.330Z,5.63
2023-02-02T03:20:10.438Z,5.56
2023-02-02T03:22:36.791Z,5.71
2023-02-02T03:25:03.344Z,5.49
2023-02-02T03:27:29.766Z,5.67
2023-02-02T03:29:56.151Z,5.62
2023-02-02T03:32:22.519Z,5.58
2023-02-02T03:34:48.805Z,5.55
2023-02-02T03:37:15.178Z,5.61
2023-02-02T03:39:41.455Z,5.49
2023-02-02T03:42:07.724Z,5.67
2023-02-02T03:44:34.061Z,5.44
2023-02-02T03:47:00.366Z,5.58
2023-02-02T03:49:26.642Z,5.49
2023-02-02T03:51:52.972Z,5.62
2023-02-02T03:54:19.297Z,5.66
2023-02-02T03:56:45.595Z,5.54
2023-02-02T03:59:11.901Z,5.56
2023-02-02T04:01:38.275Z,5.62
2023-02-02T04:04:04.630Z,5.70
2023-02-02T04:06:30.998Z,5.72
2023-02-02T04:08:57.369Z,5.69
2023-02-02T04:11:23.731Z,5.72
2023-02-02T04:13:50.045Z,5.71
2023-02-02T04:16:16.432Z,5.71
2023-02-02T04:18:42.854Z,5.63
2023-02-02T04:21:09.290Z,5.80
2023-02-02T04:23:35.884Z,5.83
2023-02-02T04:26:02.241Z,5.80
2023-02-02T04:28:28.625Z,5.86
2023-02-02T04:30:55.719Z,5.88
2023-02-02T04:33:23.214Z,5.77
2023-02-02T04:35:49.571Z,5.99
2023-02-02T04:38:16.100Z,5.90
2023-02-02T04:40:43.444Z,5.93
2023-02-02T04:43:10.197Z,5.89
2023-02-02T04:45:36.911Z,5.72
2023-02-02T04:48:03.453Z,5.81
2023-02-02T04:50:30.212Z,5.88
2023-02-02T04:52:56.539Z,5.89
2023-02-02T04:55:23.453Z,5.95
2023-02-02T04:57:50.257Z,5.77
2023-02-02T05:00:17.009Z,5.71
2023-02-02T05:02:43.413Z,5.72
2023-02-02T05:05:11.497Z,5.66
2023-02-02T05:07:37.897Z,5.73
2023-02-02T05:10:04.790Z,5.80
2023-02-02T05:12:31.197Z,5.72
2023-02-02T05:14:57.618Z,5.70
2023-02-02T05:17:23.947Z,5.77
2023-02-02T05:19:50.297Z,5.63
2023-02-02T05:22:16.603Z,5.63
2023-02-02T05:24:42.922Z,5.57
2023-02-02T05:27:09.250Z,5.69
2023-02-02T05:29:35.526Z,5.65
2023-02-02T05:32:01.865Z,5.72
2023-02-02T05:34:28.215Z,5.73
2023-02-02T05:36:54.509Z,5.61
2023-02-02T05:39:20.849Z,5.60
2023-02-02T05:41:47.187Z,5.60
2023-02-02T05:44:13.727Z,5.58
2023-02-02T05:46:40.116Z,5.64
2023-02-02T05:49:06.663Z,5.62
2023-02-02T05:51:53.639Z,5.61
2023-02-02T05:54:20.628Z,5.61
2023-02-02T05:56:47.780Z,5.58
2023-02-02T05:59:14.213Z,5.56
2023-02-02T06:01:40.572Z,5.55
2023-02-02T06:04:06.977Z,5.53
2023-02-02T06:06:35.479Z,5.39
2023-02-02T06:09:02.333Z,5.46
2023-02-02T06:11:28.663Z,5.45
2023-02-02T06:13:55.002Z,5.43
2023-02-02T06:16:21.366Z,5.44
2023-02-02T06:18:48.457Z,5.32
2023-02-02T06:21:14.896Z,5.37
2023-02-02T06:23:45.789Z,5.38
2023-02-02T06:26:15.735Z,5.21
2023-02-02T06:28:42.740Z,5.29
2023-02-02T06:31:10.970Z,5.35
2023-02-02T06:33:37.747Z,5.35
2023-02-02T06:36:05.083Z,5.25
2023-02-02T06:38:31.526Z,5.32
2023-02-02T06:41:01.501Z,5.35
2023-02-02T06:43:28.439Z,5.38
2023-02-02T06:45:54.787Z,5.14
2023-02-02T06:48:21.120Z,5.22
2023-02-02T06:50:47.442Z,5.20
2023-02-02T06:53:13.907Z,5.10
2023-02-02T06:55:40.203Z,5.22
2023-02-02T06:58:06.612Z,5.16
2023-02-02T07:00:33.227Z,5.18
2023-02-02T07:02:59.604Z,5.13
2023-02-02T07:05:30.117Z,5.22
2023-02-02T07:07:56.979Z,5.13
2023-02-02T07:11:14.446Z,5.15
2023-02-02T07:13:09.635Z,5.15
2023-02-02T07:15:38.446Z,5.21
2023-02-02T07:18:04.925Z,5.31
2023-02-02T07:20:31.475Z,5.31
2023-02-02T07:22:57.783Z,5.32
2023-02-02T07:25:24.401Z,5.23
2023-02-02T07:27:54.488Z,5.28
2023-02-02T07:30:21.424Z,5.29
2023-02-02T07:32:48.367Z,5.41
2023-02-02T07:35:15.247Z,5.35
2023-02-02T07:37:41.587Z,5.56
2023-02-02T07:40:08.704Z,5.42
2023-02-02T07:42:35.087Z,5.46
2023-02-02T07:45:25.595Z,5.44
2023-02-02T07:47:47.763Z,5.39
2023-02-02T07:50:14.099Z,5.49
2023-02-02T07:52:40.424Z,5.36
2023-02-02T07:55:14.472Z,5.40
2023-02-02T07:57:41.372Z,5.49
2023-02-02T08:00:08.034Z,5.51
2023-02-02T08:02:34.346Z,5.41
2023-02-02T08:05:00.702Z,5.41
2023-02-02T08:07:27.039Z,5.46
2023-02-02T08:09:53.431Z,5.29
2023-02-02T08:12:21.150Z,5.42
2023-02-02T08:14:47.516Z,5.37
2023-02-02T08:17:13.967Z,5.50
2023-02-02T08:19:40.290Z,5.49
2023-02-02T08:22:06.683Z,5.50
2023-02-02T08:24:32.973Z,5.52
2023-02-02T08:26:59.335Z,5.51
2023-02-02T08:29:25.791Z,5.57
2023-02-02T08:31:52.247Z,5.57
2023-02-02T08:34:18.724Z,5.60
2023-02-02T08:36:45.040Z,5.42
2023-02-02T08:39:12.181Z,5.41
2023-02-02T08:41:38.889Z,5.58
2023-02-02T08:44:06.065Z,5.59
2023-02-02T08:46:32.479Z,5.61
2023-02-02T08:48:59.025Z,5.67
2023-02-02T08:51:25.341Z,5.73
2023-02-02T08:53:51.615Z,5.69
2023-02-02T08:56:19.158Z,5.64
2023-02-02T08:58:50.146Z,5.73
2023-02-02T09:01:18.137Z,5.75
2023-02-02T09:03:45.013Z,5.73
2023-02-02T09:06:13.070Z,5.67
2023-02-02T09:08:39.699Z,5.82
2023-02-02T09:11:14.055Z,5.69
2023-02-02T09:13:41.056Z,5.88
2023-02-02T09:16:09.068Z,5.83
2023-02-02T09:18:35.458Z,5.81
2023-02-02T09:21:03.079Z,5.69
2023-02-02T09:23:31.079Z,5.86
2023-02-02T09:25:57.524Z,5.75
2023-02-02T09:28:23.957Z,5.70
2023-02-02T09:30:51.314Z,5.86
2023-02-02T09:33:17.675Z,5.79
2023-02-02T09:35:43.976Z,5.90
2023-02-02T09:38:10.293Z,5.86
2023-02-02T09:40:36.713Z,5.90
2023-02-02T09:43:21.621Z,5.82
2023-02-02T09:45:54.962Z,5.73
2023-02-02T09:48:42.692Z,5.78
2023-02-02T09:51:18.780Z,5.78
2023-02-02T09:53:56.118Z,5.67
2023-02-02T09:56:38.956Z,5.87
2023-02-02T09:59:19.339Z,5.87
2023-02-02T10:01:48.243Z,5.87
2023-02-02T10:04:20.613Z,5.89
2023-02-02T10:06:48.948Z,5.85
2023-02-02T10:09:18.096Z,6.04
2023-02-02T10:11:48.984Z,6.08
2023-02-02T10:14:19.642Z,6.05
2023-02-02T10:16:47.830Z,6.12
2023-02-02T10:19:14.933Z,6.17
2023-02-02T10:21:46.486Z,6.27
2023-02-02T10:24:17.814Z,6.32
2023-02-02T10:26:48.824Z,6.36
2023-02-02T10:29:48.547Z,6.42
2023-02-02T10:32:23.446Z,6.47
2023-02-02T10:35:13.808Z,6.29
2023-02-02T10:37:40.845Z,6.35
2023-02-02T10:40:07.173Z,6.24
2023-02-02T10:43:12.196Z,6.41
2023-02-02T10:45:41.521Z,6.35
2023-02-02T10:48:15.418Z,6.27
2023-02-02T10:50:48.074Z,6.33
2023-02-02T10:53:15.610Z,6.45
2023-02-02T10:55:59.916Z,6.45
2023-02-02T10:58:29.014Z,6.41
2023-02-02T11:00:57.905Z,6.44
2023-02-02T11:03:33.515Z,6.41
2023-02-02T11:06:19.906Z,6.43
2023-02-02T11:08:48.508Z,6.44
2023-02-02T11:11:20.426Z,6.38
2023-02-02T11:14:04.015Z,6.12
2023-02-02T11:16:42.151Z,5.97
2023-02-02T11:19:15.184Z,5.54
2023-02-02T11:21:45.022Z,5.59
2023-02-02T11:24:28.462Z,5.31
2023-02-02T11:26:56.950Z,5.49
2023-02-02T11:29:32.480Z,5.47
2023-02-02T11:32:17.262Z,5.42
2023-02-02T11:34:43.673Z,5.37
2023-02-02T11:37:21.134Z,5.18
2023-02-02T11:39:47.488Z,5.14
2023-02-02T11:42:17.609Z,5.22
2023-02-02T11:44:46.572Z,5.24
2023-02-02T11:47:42.063Z,5.14
2023-02-02T11:50:17.868Z,5.27
2023-02-02T11:52:45.669Z,5.08
2023-02-02T11:55:17.077Z,5.29
2023-02-02T11:58:03.342Z,5.19
2023-02-02T12:00:30.446Z,5.19
2023-02-02T12:02:58.184Z,5.26
2023-02-02T12:05:35.021Z,5.44
2023-02-02T12:08:01.513Z,5.34
2023-02-02T12:10:40.405Z,5.40
2023-02-02T12:13:06.706Z,5.53
2023-02-02T12:15:47.795Z,5.50
2023-02-02T12:18:31.506Z,5.58
2023-02-02T12:21:15.983Z,5.57
2023-02-02T12:24:01.143Z,5.56
2023-02-02T12:26:29.272Z,5.65
2023-02-02T12:29:03.596Z,5.43
2023-02-02T12:31:42.299Z,5.54
2023-02-02T12:34:10.748Z,5.52
2023-02-02T12:37:00.211Z,5.36
2023-02-02T12:39:26.495Z,5.56
2023-02-02T12:42:14.481Z,5.45
2023-02-02T12:44:50.898Z,5.62
2023-02-02T12:47:17.396Z,5.62
2023-02-02T12:49:53.084Z,5.51
2023-02-02T12:52:34.516Z,5.66
2023-02-02T12:55:19.670Z,5.90
2023-02-02T12:57:46.130Z,5.89
2023-02-02T13:00:24.044Z,6.01
2023-02-02T13:02:59.874Z,6.05
2023-02-02T13:05:38.516Z,6.05
2023-02-02T13:08:37.458Z,6.06
2023-02-02T13:11:06.808Z,5.97
2023-02-02T13:13:37.452Z,6.04
2023-02-02T13:16:09.023Z,6.05
2023-02-02T13:18:38.845Z,6.12
2023-02-02T13:21:07.677Z,6.04
2023-02-02T13:23:36.309Z,6.08
2023-02-02T13:26:21.342Z,6.25
2023-02-02T13:28:57.108Z,6.24
2023-02-02T13:31:26.600Z,6.03
2023-02-02T13:34:05.115Z,6.03
2023-02-02T13:36:37.423Z,6.03
2023-02-02T13:39:12.391Z,6.04
2023-02-02T13:41:39.143Z,5.97
2023-02-02T13:44:13.706Z,6.00
2023-02-02T13:46:48.106Z,5.91
2023-02-02T13:49:23.219Z,5.94
2023-02-02T13:51:53.832Z,5.82
2023-02-02T13:54:20.197Z,5.92
2023-02-02T13:56:46.472Z,5.93
2023-02-02T13:59:14.152Z,5.73
2023-02-02T14:01:43.014Z,5.84
2023-02-02T14:04:19.697Z,5.94
2023-02-02T14:06:52.546Z,5.86
2023-02-02T14:09:19.382Z,5.79
2023-02-02T14:11:53.385Z,5.84
2023-02-02T14:14:34.450Z,5.78
2023-02-02T14:17:02.019Z,5.63
2023-02-02T14:19:28.312Z,5.72
2023-02-02T14:22:00.679Z,5.73
2023-02-02T14:24:27.125Z,5.71
2023-02-02T14:26:54.494Z,5.66
2023-02-02T14:29:29.329Z,5.64
2023-02-02T14:31:56.775Z,5.62
2023-02-02T14:34:53.592Z,5.68
2023-02-02T14:37:22.761Z,5.48
2023-02-02T14:39:52.070Z,5.51
2023-02-02T14:42:45.206Z,5.57
2023-02-02T14:45:11.502Z,5.46
2023-02-02T14:47:48.747Z,5.42
2023-02-02T14:50:17.569Z,5.55
2023-02-02T14:52:44.168Z,5.51
2023-02-02T14:55:18.195Z,5.43
2023-02-02T14:57:44.596Z,5.48
2023-02-02T15:00:21.224Z,5.34
2023-02-02T15:02:53.177Z,5.39
2023-02-02T15:05:28.821Z,5.31
2023-02-02T15:08:05.960Z,5.43
2023-02-02T15:10:48.103Z,5.35
2023-02-02T15:13:15.984Z,5.40
2023-02-02T15:15:43.959Z,5.35
2023-02-02T15:18:15.833Z,5.35
2023-02-02T15:21:01.376Z,5.29
2023-02-02T15:23:30.604Z,5.22
2023-02-02T15:25:59.672Z,5.22
2023-02-02T15:28:38.256Z,5.28
2023-02-02T15:31:16.927Z,5.16
2023-02-02T15:33:44.863Z,5.18
2023-02-02T15:36:13.994Z,5.15
2023-02-02T15:38:41.832Z,5.10
2023-02-02T15:41:16.404Z,5.02
2023-02-02T15:43:43.040Z,4.97
2023-02-02T15:46:13.363Z,4.87
2023-02-02T15:48:39.978Z,4.88
2023-02-02T15:51:16.907Z,4.86
2023-02-02T15:53:43.213Z,4.83
2023-02-02T15:56:24.585Z,4.77
2023-02-02T15:58:52.448Z,4.69
2023-02-02T16:01:21.267Z,4.62
2023-02-02T16:03:47.730Z,4.59
2023-02-02T16:06:14.402Z,4.55
2023-02-02T16:08:41.372Z,4.51
2023-02-02T16:11:13.681Z,4.54
2023-02-02T16:13:40.757Z,4.55
2023-02-02T16:16:20.702Z,4.55
2023-02-02T16:18:47.197Z,4.51
2023-02-02T16:21:24.623Z,4.43
2023-02-02T16:23:51.346Z,4.32
2023-02-02T16:26:19.497Z,4.38
2023-02-02T16:28:46.759Z,4.32
2023-02-02T16:31:14.513Z,4.25
2023-02-02T16:33:41.781Z,4.24
2023-02-02T16:36:31.365Z,4.16
2023-02-02T16:38:58.461Z,4.07
2023-02-02T16:41:29.784Z,3.99
2023-02-02T16:43:56.201Z,3.90
2023-02-02T16:46:45.768Z,3.86
2023-02-02T16:49:17.906Z,3.81
2023-02-02T16:51:45.361Z,3.78
2023-02-02T16:54:17.781Z,3.72
2023-02-02T16:56:46.169Z,3.55
2023-02-02T16:59:22.374Z,3.44
2023-02-02T17:01:51.899Z,3.39
2023-02-02T17:04:21.064Z,3.22
2023-02-02T17:06:52.819Z,3.13
2023-02-02T17:09:34.518Z,3.02
2023-02-02T17:12:01.884Z,2.91
2023-02-02T17:14:29.930Z,2.83
2023-02-02T17:16:56.364Z,2.75
2023-02-02T17:19:22.783Z,2.65
2023-02-02T17:21:49.486Z,2.60
2023-02-02T17:24:17.067Z,2.50
2023-02-02T17:26:43.598Z,2.38
2023-02-02T17:29:12.627Z,2.33
2023-02-02T17:31:39.196Z,2.29
2023-02-02T17:34:14.594Z,2.19
2023-02-02T17:36:41.430Z,2.13
2023-02-02T17:39:09.522Z,2.09
2023-02-02T17:41:37.139Z,1.99
2023-02-02T17:44:05.287Z,1.96
2023-02-02T17:46:32.327Z,1.93
2023-02-02T17:48:58.800Z,1.91
2023-02-02T17:51:25.208Z,1.90
2023-02-02T17:53:52.122Z,1.84
2023-02-02T17:56:19.463Z,1.77
2023-02-02T17:58:45.917Z,1.75
2023-02-02T18:01:12.537Z,1.75
2023-02-02T18:03:40.497Z,1.70
2023-02-02T18:06:07.124Z,1.68
2023-02-02T18:08:33.781Z,1.70
2023-02-02T18:11:00.600Z,1.68
2023-02-02T18:13:27.068Z,1.67
2023-02-02T18:15:53.549Z,1.64
2023-02-02T18:18:19.954Z,1.62
2023-02-02T18:20:47.910Z,1.67
2023-02-02T18:23:14.842Z,1.65
2023-02-02T18:25:41.389Z,1.57
2023-02-02T18:28:08.152Z,1.55
2023-02-02T18:30:34.521Z,1.49
2023-02-02T18:33:00.955Z,1.50
2023-02-02T18:35:28.253Z,1.45
2023-02-02T18:37:54.668Z,1.44
2023-02-02T18:40:21.008Z,1.45
2023-02-02T18:42:47.392Z,1.43
2023-02-02T18:45:14.859Z,1.42
2023-02-02T18:47:41.635Z,1.39
2023-02-02T18:50:08.236Z,1.36
2023-02-02T18:52:34.845Z,1.33
2023-02-02T18:55:01.286Z,1.33
2023-02-02T18:57:29.086Z,1.30
2023-02-02T18:59:55.446Z,1.27
2023-02-02T19:02:21.911Z,1.22
2023-02-02T19:05:06.969Z,1.21
2023-02-02T19:07:52.302Z,1.12
2023-02-02T19:10:18.928Z,1.10
2023-02-02T19:13:00.870Z,1.13
2023-02-02T19:15:27.635Z,1.15
2023-02-02T19:17:55.104Z,1.15
2023-02-02T19:20:23.757Z,1.13
2023-02-02T19:22:50.264Z,1.15
2023-02-02T19:25:17.480Z,1.14
2023-02-02T19:27:44.015Z,1.03
2023-02-02T19:30:19.271Z,1.09
2023-02-02T19:32:45.857Z,1.12
2023-02-02T19:35:20.308Z,1.17
2023-02-02T19:37:48.370Z,1.21
2023-02-02T19:40:22.531Z,1.24
2023-02-02T19:42:55.610Z,1.30
2023-02-02T19:45:24.780Z,1.30
2023-02-02T19:47:52.405Z,1.32
2023-02-02T19:50:20.355Z,1.33
2023-02-02T19:52:47.431Z,1.31
2023-02-02T19:55:25.917Z,1.33
2023-02-02T19:57:53.139Z,1.35
2023-02-02T20:00:27.864Z,1.35
2023-02-02T20:03:06.659Z,1.32
2023-02-02T20:05:36.257Z,1.34
2023-02-02T20:08:23.267Z,1.35
2023-02-02T20:10:50.410Z,1.41
2023-02-02T20:13:21.633Z,1.40
2023-02-02T20:15:48.934Z,1.46
2023-02-02T20:18:23.755Z,1.54
2023-02-02T20:20:52.461Z,1.60
2023-02-02T20:23:27.954Z,1.60
2023-02-02T20:25:54.517Z,1.72
2023-02-02T20:28:34.162Z,1.77
2023-02-02T20:31:04.793Z,1.78
2023-02-02T20:33:33.125Z,1.80
2023-02-02T20:36:00.698Z,1.81
2023-02-02T20:38:28.715Z,1.84
2023-02-02T20:40:55.682Z,1.82
2023-02-02T20:43:22.214Z,1.86
2023-02-02T20:45:48.808Z,1.85
2023-02-02T20:48:15.348Z,1.84
2023-02-02T20:50:41.802Z,1.89
2023-02-02T20:53:08.766Z,1.86
2023-02-02T20:55:38.069Z,1.83
2023-02-02T20:58:04.952Z,1.80
2023-02-02T21:00:31.887Z,1.59
2023-02-02T21:02:58.265Z,1.75
2023-02-02T21:05:25.105Z,1.84
2023-02-02T21:07:54.643Z,1.84
2023-02-02T21:10:22.017Z,1.80
2023-02-02T21:12:51.478Z,1.76
2023-02-02T21:15:19.047Z,1.77
2023-02-02T21:17:45.445Z,1.75
2023-02-02T21:20:12.951Z,1.75
2023-02-02T21:22:39.260Z,1.65
2023-02-02T21:25:06.080Z,1.71
2023-02-02T21:27:32.482Z,1.70
2023-02-02T21:29:58.768Z,1.72
2023-02-02T21:32:25.079Z,1.72
2023-02-02T21:34:51.427Z,1.70
2023-02-02T21:37:17.816Z,1.73
2023-02-02T21:39:49.533Z,1.76
2023-02-02T21:42:17.733Z,1.74
2023-02-02T21:44:45.572Z,1.75
2023-02-02T21:47:24.061Z,1.73
2023-02-02T21:49:50.441Z,1.74
2023-02-02T21:52:18.093Z,1.76
2023-02-02T21:54:45.032Z,1.80
2023-02-02T21:57:16.760Z,1.83
2023-02-02T21:59:45.544Z,1.82
2023-02-02T22:02:35.334Z,1.86
2023-02-02T22:05:01.974Z,1.87
2023-02-02T22:07:28.770Z,1.97
2023-02-02T22:09:56.011Z,1.92
2023-02-02T22:12:27.373Z,2.01
2023-02-02T22:14:57.676Z,2.02
2023-02-02T22:17:40.257Z,2.17
2023-02-02T22:20:15.614Z,2.38
2023-02-02T22:22:44.751Z,2.55
2023-02-02T22:25:16.789Z,2.58
2023-02-02T22:27:46.320Z,2.64
2023-02-02T22:30:18.848Z,2.67
2023-02-02T22:32:45.134Z,2.58
2023-02-02T22:35:11.431Z,2.57
2023-02-02T22:37:37.729Z,2.74
2023-02-02T22:40:04.122Z,2.89
2023-02-02T22:42:30.501Z,2.90
2023-02-02T22:44:56.803Z,2.96
2023-02-02T22:47:23.163Z,2.95
2023-02-02T22:49:49.526Z,2.87
2023-02-02T22:52:15.844Z,2.94
2023-02-02T22:54:42.151Z,2.92
2023-02-02T22:57:08.525Z,3.08
2023-02-02T22:59:35.051Z,3.08
2023-02-02T23:02:01.463Z,3.03
2023-02-02T23:04:27.757Z,2.98
2023-02-02T23:06:54.071Z,3.23
2023-02-02T23:09:20.423Z,3.11
2023-02-02T23:11:49.142Z,3.04
2023-02-02T23:14:15.693Z,3.07
2023-02-02T23:16:41.996Z,3.23
2023-02-02T23:19:08.342Z,3.30
2023-02-02T23:21:34.658Z,3.16
2023-02-02T23:24:00.991Z,3.37
2023-02-02T23:26:27.388Z,3.32
2023-02-02T23:28:53.690Z,3.29
2023-02-02T23:31:20.083Z,3.23
2023-02-02T23:33:46.540Z,3.23
2023-02-02T23:36:12.890Z,3.36
2023-02-02T23:38:39.190Z,3.34
2023-02-02T23:41:05.637Z,3.20
2023-02-02T23:43:32.006Z,3.26
2023-02-02T23:46:00.055Z,3.17
2023-02-02T23:48:26.494Z,3.26
2023-02-02T23:50:53.226Z,3.21
2023-02-02T23:53:19.725Z,3.28
2023-02-02T23:55:46.373Z,3.23
2023-02-02T23:58:13.324Z,3.24
